createdAt,value
2023-03-05T00:00:45.142Z,16.07
2023-03-05T00:03:13.168Z,18.07
2023-03-05T00:05:41.223Z,16.50
2023-03-05T00:08:09.035Z,15.43
2023-03-05T00:10:36.887Z,16.03
2023-03-05T00:13:04.822Z,16.43
2023-03-05T00:15:32.864Z,16.97
2023-03-05T00:18:02.125Z,16.13
2023-03-05T00:20:29.969Z,16.63
2023-03-05T00:22:57.792Z,16.63
2023-03-05T00:25:25.766Z,17.97
2023-03-05T00:27:53.638Z,16.27
2023-03-05T00:30:21.460Z,16.20
2023-03-05T00:32:49.301Z,17.97
2023-03-05T00:35:18.646Z,17.17
2023-03-05T00:37:46.629Z,17.90
2023-03-05T00:40:14.740Z,17.57
2023-03-05T00:42:42.750Z,17.30
2023-03-05T00:45:11.880Z,18.90
2023-03-05T00:47:40.307Z,17.97
2023-03-05T00:50:09.447Z,17.77
2023-03-05T00:52:39.109Z,17.47
2023-03-05T00:55:07.680Z,18.70
2023-03-05T00:57:35.517Z,18.60
2023-03-05T01:00:04.002Z,18.13
2023-03-05T01:02:33.810Z,19.07
2023-03-05T01:05:02.821Z,18.10
2023-03-05T01:07:31.023Z,18.77
2023-03-05T01:10:00.293Z,20.47
2023-03-05T01:12:28.084Z,17.83
2023-03-05T01:14:55.920Z,20.00
2023-03-05T01:17:23.770Z,19.13
2023-03-05T01:19:51.678Z,19.27
2023-03-05T01:22:19.559Z,18.93
2023-03-05T01:24:47.574Z,19.30
2023-03-05T01:27:16.965Z,19.83
2023-03-05T01:29:44.907Z,20.10
2023-03-05T01:32:12.921Z,19.57
2023-03-05T01:34:41.935Z,18.70
2023-03-05T01:37:10.060Z,18.87
2023-03-05T01:39:37.896Z,18.30
2023-03-05T01:42:06.205Z,18.87
2023-03-05T01:44:36.189Z,18.10
2023-03-05T01:47:04.399Z,19.23
2023-03-05T01:49:35.195Z,19.30
2023-03-05T01:52:07.582Z,19.10
2023-03-05T01:54:39.814Z,19.40
2023-03-05T01:57:11.233Z,19.27
2023-03-05T01:59:43.017Z,19.33
2023-03-05T02:02:11.015Z,20.53
2023-03-05T02:04:44.774Z,19.03
2023-03-05T02:07:13.692Z,21.20
2023-03-05T02:09:42.726Z,20.03
2023-03-05T02:12:12.747Z,20.23
2023-03-05T02:14:44.035Z,19.77
2023-03-05T02:17:12.894Z,20.30
2023-03-05T02:19:52.134Z,19.93
2023-03-05T02:22:23.835Z,19.67
2023-03-05T02:24:53.390Z,20.70
2023-03-05T02:27:27.200Z,20.10
2023-03-05T02:29:55.580Z,20.53
2023-03-05T02:32:23.505Z,20.27
2023-03-05T02:34:51.330Z,20.17
2023-03-05T02:37:20.929Z,20.23
2023-03-05T02:39:48.739Z,19.67
2023-03-05T02:42:16.735Z,19.43
2023-03-05T02:44:44.692Z,20.17
2023-03-05T02:47:16.089Z,19.70
2023-03-05T02:49:44.498Z,21.23
2023-03-05T02:52:13.415Z,20.23
2023-03-05T02:54:42.805Z,21.27
2023-03-05T02:57:10.671Z,20.23
2023-03-05T02:59:38.562Z,20.47
2023-03-05T03:02:06.650Z,18.93
2023-03-05T03:04:34.465Z,19.50
2023-03-05T03:07:02.382Z,17.77
2023-03-05T03:09:30.358Z,18.63
2023-03-05T03:11:59.568Z,17.90
2023-03-05T03:14:27.515Z,19.77
2023-03-05T03:16:55.316Z,19.03
2023-03-05T03:19:23.235Z,18.57
2023-03-05T03:21:51.173Z,19.00
2023-03-05T03:24:18.952Z,18.97
2023-03-05T03:26:46.816Z,19.37
2023-03-05T03:29:16.042Z,20.03
2023-03-05T03:31:45.536Z,17.77
2023-03-05T03:34:15.024Z,19.60
2023-03-05T03:36:43.024Z,19.70
2023-03-05T03:39:11.400Z,19.63
2023-03-05T03:41:42.425Z,19.80
2023-03-05T03:44:10.725Z,20.57
2023-03-05T03:46:41.889Z,18.87
2023-03-05T03:49:09.752Z,20.13
2023-03-05T03:51:37.639Z,20.47
2023-03-05T03:54:05.595Z,19.47
2023-03-05T03:56:33.412Z,18.80
2023-03-05T03:59:01.278Z,19.83
2023-03-05T04:01:29.202Z,20.17
2023-03-05T04:03:58.379Z,18.80
2023-03-05T04:06:26.500Z,19.47
2023-03-05T04:08:54.611Z,19.33
2023-03-05T04:11:22.475Z,18.10
2023-03-05T04:13:50.413Z,19.00
2023-03-05T04:16:19.586Z,18.30
2023-03-05T04:18:47.451Z,17.80
2023-03-05T04:21:16.679Z,17.53
2023-03-05T04:23:44.615Z,18.50
2023-03-05T04:26:12.682Z,17.30
2023-03-05T04:28:40.478Z,17.77
2023-03-05T04:31:08.291Z,16.47
2023-03-05T04:33:36.286Z,17.03
2023-03-05T04:36:04.822Z,19.07
2023-03-05T04:38:34.009Z,19.83
2023-03-05T04:41:01.864Z,18.73
2023-03-05T04:43:29.642Z,18.63
2023-03-05T04:45:57.571Z,18.50
2023-03-05T04:48:25.697Z,18.20
2023-03-05T04:50:53.485Z,20.03
2023-03-05T04:53:21.374Z,17.07
2023-03-05T04:55:55.314Z,18.83
2023-03-05T04:58:23.687Z,17.20
2023-03-05T05:00:52.670Z,18.03
2023-03-05T05:03:20.562Z,17.40
2023-03-05T05:05:55.431Z,17.83
2023-03-05T05:08:23.654Z,19.13
2023-03-05T05:11:01.371Z,18.63
2023-03-05T05:13:29.244Z,17.60
2023-03-05T05:15:57.557Z,18.47
2023-03-05T05:18:25.534Z,17.67
2023-03-05T05:20:53.443Z,18.70
2023-03-05T05:23:21.270Z,18.30
2023-03-05T05:25:57.281Z,18.07
2023-03-05T05:28:26.607Z,18.87
2023-03-05T05:30:55.939Z,18.93
2023-03-05T05:33:24.578Z,19.73
2023-03-05T05:35:52.505Z,18.73
2023-03-05T05:38:20.754Z,18.70
2023-03-05T05:40:48.606Z,17.67
2023-03-05T05:43:16.573Z,18.73
2023-03-05T05:45:45.816Z,16.93
2023-03-05T05:48:13.736Z,19.27
2023-03-05T05:50:41.575Z,16.53
2023-03-05T05:53:09.358Z,16.63
2023-03-05T05:55:37.202Z,17.53
2023-03-05T05:58:04.988Z,17.07
2023-03-05T06:00:32.791Z,16.60
2023-03-05T06:03:02.047Z,17.53
2023-03-05T06:05:30.047Z,17.33
2023-03-05T06:07:58.133Z,16.40
2023-03-05T06:10:26.002Z,17.50
2023-03-05T06:12:53.788Z,16.43
2023-03-05T06:15:21.628Z,15.30
2023-03-05T06:17:49.460Z,16.37
2023-03-05T06:20:19.887Z,15.70
2023-03-05T06:22:47.877Z,15.80
2023-03-05T06:25:15.730Z,15.60
2023-03-05T06:27:43.799Z,16.73
2023-03-05T06:30:13.271Z,16.00
2023-03-05T06:32:41.090Z,17.30
2023-03-05T06:35:09.868Z,16.83
2023-03-05T06:37:39.031Z,16.53
2023-03-05T06:40:08.688Z,16.17
2023-03-05T06:42:36.584Z,16.23
2023-03-05T06:45:05.034Z,16.37
2023-03-05T06:47:32.876Z,16.27
2023-03-05T06:50:00.696Z,16.83
2023-03-05T06:52:28.570Z,18.20
2023-03-05T06:54:57.750Z,18.07
2023-03-05T06:57:25.557Z,18.07
2023-03-05T06:59:53.409Z,19.10
2023-03-05T07:02:21.242Z,19.63
2023-03-05T07:04:49.205Z,18.53
2023-03-05T07:07:17.268Z,19.10
2023-03-05T07:09:46.080Z,17.80
2023-03-05T07:12:15.538Z,17.23
2023-03-05T07:14:43.566Z,17.67
2023-03-05T07:17:11.538Z,17.50
2023-03-05T07:19:39.782Z,16.80
2023-03-05T07:22:08.252Z,16.63
2023-03-05T07:24:36.615Z,16.00
2023-03-05T07:27:04.911Z,16.93
2023-03-05T07:29:34.455Z,14.43
2023-03-05T07:32:02.944Z,12.63
2023-03-05T07:34:31.224Z,13.73
2023-03-05T07:36:59.484Z,13.00
2023-03-05T07:39:27.620Z,13.97
2023-03-05T07:41:55.641Z,16.17
2023-03-05T07:44:30.333Z,16.30
2023-03-05T07:47:00.000Z,15.43
2023-03-05T07:49:28.321Z,14.83
2023-03-05T07:51:56.177Z,12.57
2023-03-05T07:54:24.230Z,12.07
2023-03-05T07:56:52.451Z,11.93
2023-03-05T07:59:20.347Z,10.60
2023-03-05T08:01:48.477Z,12.33
2023-03-05T08:04:18.064Z,11.43
2023-03-05T08:06:47.079Z,11.27
2023-03-05T08:09:15.290Z,11.93
2023-03-05T08:11:43.614Z,11.83
2023-03-05T08:14:13.025Z,11.90
2023-03-05T08:16:42.339Z,13.40
2023-03-05T08:19:12.254Z,12.33
2023-03-05T08:21:41.817Z,12.47
2023-03-05T08:24:12.013Z,11.53
2023-03-05T08:26:41.491Z,11.77
2023-03-05T08:29:10.889Z,12.33
2023-03-05T08:31:40.328Z,12.73
2023-03-05T08:34:08.763Z,12.73
2023-03-05T08:36:37.095Z,12.33
2023-03-05T08:39:08.502Z,12.40
2023-03-05T08:41:36.710Z,13.13
2023-03-05T08:44:05.468Z,12.60
2023-03-05T08:46:33.943Z,12.23
2023-03-05T08:49:01.949Z,13.07
2023-03-05T08:51:30.349Z,13.10
2023-03-05T08:54:00.135Z,12.80
2023-03-05T08:56:31.662Z,13.47
2023-03-05T08:58:59.681Z,13.97
2023-03-05T09:01:28.037Z,12.73
2023-03-05T09:03:56.541Z,13.33
2023-03-05T09:06:25.130Z,13.07
2023-03-05T09:08:53.704Z,12.83
2023-03-05T09:11:22.409Z,12.33
2023-03-05T09:13:52.181Z,13.40
2023-03-05T09:16:21.787Z,13.40
2023-03-05T09:18:50.016Z,12.73
2023-03-05T09:21:19.067Z,12.63
2023-03-05T09:23:48.012Z,11.67
2023-03-05T09:26:19.254Z,12.57
2023-03-05T09:28:48.659Z,11.80
2023-03-05T09:31:18.225Z,12.40
2023-03-05T09:33:48.286Z,11.53
2023-03-05T09:36:23.209Z,12.40
2023-03-05T09:38:51.877Z,11.43
2023-03-05T09:41:30.302Z,12.37
2023-03-05T09:44:08.878Z,12.20
2023-03-05T09:46:50.949Z,12.40
2023-03-05T09:49:31.809Z,12.67
2023-03-05T09:52:06.764Z,12.63
2023-03-05T09:54:39.941Z,11.87
2023-03-05T09:57:17.525Z,12.13
2023-03-05T09:59:51.052Z,12.40
2023-03-05T10:02:26.339Z,12.47
2023-03-05T10:04:59.812Z,10.87
2023-03-05T10:07:32.203Z,11.87
2023-03-05T10:10:02.641Z,13.07
2023-03-05T10:12:42.603Z,12.57
2023-03-05T10:15:14.492Z,13.90
2023-03-05T10:18:13.343Z,14.47
2023-03-05T10:21:00.321Z,11.33
2023-03-05T10:23:33.028Z,12.23
2023-03-05T10:26:08.528Z,12.17
2023-03-05T10:28:44.367Z,11.80
2023-03-05T10:31:26.652Z,14.40
2023-03-05T10:34:12.254Z,11.80
2023-03-05T10:37:02.451Z,14.23
2023-03-05T10:40:00.446Z,11.00
2023-03-05T10:42:40.982Z,11.73
2023-03-05T10:45:16.680Z,12.20
2023-03-05T10:47:49.694Z,11.73
2023-03-05T10:50:21.953Z,11.83
2023-03-05T10:53:02.069Z,13.00
2023-03-05T10:55:29.986Z,12.37
2023-03-05T10:57:57.998Z,12.07
2023-03-05T11:00:27.754Z,12.87
2023-03-05T11:03:00.208Z,12.13
2023-03-05T11:05:42.791Z,12.43
2023-03-05T11:08:30.144Z,12.10
2023-03-05T11:11:22.707Z,11.57
2023-03-05T11:13:57.132Z,11.40
2023-03-05T11:16:27.510Z,11.00
2023-03-05T11:19:20.447Z,11.47
2023-03-05T11:22:07.611Z,11.53
2023-03-05T11:24:35.461Z,11.33
2023-03-05T11:27:03.965Z,11.17
2023-03-05T11:29:33.640Z,12.27
2023-03-05T11:32:17.452Z,11.53
2023-03-05T11:34:46.087Z,11.40
2023-03-05T11:37:24.720Z,10.93
2023-03-05T11:40:16.653Z,11.63
2023-03-05T11:42:45.179Z,12.93
2023-03-05T11:45:18.808Z,12.90
2023-03-05T11:47:49.838Z,12.70
2023-03-05T11:50:23.268Z,12.30
2023-03-05T11:52:54.659Z,14.57
2023-03-05T11:55:27.937Z,13.17
2023-03-05T11:58:05.774Z,11.87
2023-03-05T12:00:37.008Z,12.30
2023-03-05T12:03:12.219Z,12.87
2023-03-05T12:05:42.704Z,12.43
2023-03-05T12:08:16.428Z,12.43
2023-03-05T12:10:44.420Z,11.63
2023-03-05T12:13:21.112Z,13.23
2023-03-05T12:16:01.768Z,12.67
2023-03-05T12:18:38.408Z,12.67
2023-03-05T12:21:15.494Z,13.80
2023-03-05T12:23:50.773Z,32.70
2023-03-05T12:26:18.996Z,17.90
2023-03-05T12:29:04.734Z,14.83
2023-03-05T12:31:38.679Z,16.00
2023-03-05T12:34:40.497Z,18.57
2023-03-05T12:37:12.608Z,16.33
2023-03-05T12:39:58.230Z,15.60
2023-03-05T12:42:52.554Z,16.00
2023-03-05T12:45:41.993Z,16.10
2023-03-05T12:48:45.155Z,15.23
2023-03-05T12:51:30.709Z,16.27
2023-03-05T12:53:59.731Z,15.97
2023-03-05T12:56:34.532Z,16.47
2023-03-05T12:59:04.641Z,14.73
2023-03-05T13:01:41.561Z,13.80
2023-03-05T13:04:17.457Z,13.13
2023-03-05T13:06:45.279Z,13.80
2023-03-05T13:09:19.022Z,12.87
2023-03-05T13:11:51.000Z,12.50
2023-03-05T13:14:31.137Z,12.90
2023-03-05T13:16:59.486Z,12.57
2023-03-05T13:19:27.935Z,12.30
2023-03-05T13:21:59.805Z,13.63
2023-03-05T13:24:29.195Z,14.07
2023-03-05T13:26:58.478Z,14.80
2023-03-05T13:29:28.362Z,12.73
2023-03-05T13:31:58.501Z,12.10
2023-03-05T13:34:40.850Z,13.27
2023-03-05T13:37:18.758Z,13.27
2023-03-05T13:39:51.290Z,11.40
2023-03-05T13:42:24.036Z,12.50
2023-03-05T13:44:55.928Z,11.40
2023-03-05T13:47:28.395Z,12.00
2023-03-05T13:49:59.853Z,10.60
2023-03-05T13:52:30.855Z,12.50
2023-03-05T13:54:59.655Z,11.67
2023-03-05T13:57:40.568Z,11.47
2023-03-05T14:00:27.471Z,12.47
2023-03-05T14:02:59.500Z,15.37
2023-03-05T14:05:28.193Z,10.57
2023-03-05T14:07:56.720Z,11.30
2023-03-05T14:10:35.365Z,11.13
2023-03-05T14:13:07.010Z,11.27
2023-03-05T14:15:36.545Z,12.23
2023-03-05T14:18:19.917Z,11.03
2023-03-05T14:21:03.859Z,10.37
2023-03-05T14:23:37.623Z,10.27
2023-03-05T14:26:33.475Z,10.50
2023-03-05T14:29:05.222Z,25.13
2023-03-05T14:31:47.049Z,12.57
2023-03-05T14:34:24.344Z,13.00
2023-03-05T14:36:54.663Z,18.07
2023-03-05T14:39:29.581Z,11.87
2023-03-05T14:42:13.359Z,11.60
2023-03-05T14:44:43.622Z,12.60
2023-03-05T14:47:11.419Z,12.30
2023-03-05T14:49:39.689Z,13.07
2023-03-05T14:52:07.572Z,13.67
2023-03-05T14:54:38.581Z,14.10
2023-03-05T14:57:07.136Z,12.63
2023-03-05T14:59:34.970Z,12.40
2023-03-05T15:02:04.227Z,11.73
2023-03-05T15:04:32.076Z,11.83
2023-03-05T15:06:59.879Z,12.60
2023-03-05T15:09:27.828Z,13.50
2023-03-05T15:11:55.720Z,14.53
2023-03-05T15:14:23.682Z,13.40
2023-03-05T15:16:51.612Z,14.23
2023-03-05T15:19:20.823Z,14.13
2023-03-05T15:21:48.645Z,13.17
2023-03-05T15:24:16.485Z,12.17
2023-03-05T15:26:45.055Z,13.00
2023-03-05T15:29:12.867Z,13.10
2023-03-05T15:31:40.825Z,15.23
2023-03-05T15:34:08.741Z,13.30
2023-03-05T15:36:37.962Z,13.73
2023-03-05T15:39:05.836Z,12.63
2023-03-05T15:41:33.682Z,13.63
2023-03-05T15:44:01.516Z,14.00
2023-03-05T15:46:29.350Z,14.00
2023-03-05T15:48:57.169Z,13.20
2023-03-05T15:51:25.037Z,12.83
2023-03-05T15:53:54.512Z,14.03
2023-03-05T15:56:22.390Z,14.83
2023-03-05T15:58:50.768Z,13.40
2023-03-05T16:01:20.770Z,16.53
2023-03-05T16:03:49.122Z,13.70
2023-03-05T16:06:22.489Z,12.97
2023-03-05T16:08:52.377Z,14.17
2023-03-05T16:11:22.442Z,14.27
2023-03-05T16:13:51.521Z,12.80
2023-03-05T16:16:20.303Z,14.03
2023-03-05T16:18:48.927Z,13.90
2023-03-05T16:21:16.894Z,13.30
2023-03-05T16:23:44.978Z,12.80
2023-03-05T16:26:12.753Z,13.23
2023-03-05T16:28:42.000Z,13.67
2023-03-05T16:31:09.824Z,12.37
2023-03-05T16:33:37.683Z,13.67
2023-03-05T16:36:24.036Z,14.10
2023-03-05T16:38:53.451Z,14.17
2023-03-05T16:41:24.389Z,16.87
2023-03-05T16:43:56.363Z,16.20
2023-03-05T16:46:24.655Z,17.70
2023-03-05T16:48:52.713Z,14.17
2023-03-05T16:51:21.774Z,14.50
2023-03-05T16:53:49.623Z,16.10
2023-03-05T16:56:17.610Z,14.47
2023-03-05T16:58:45.712Z,13.83
2023-03-05T17:01:19.083Z,14.70
2023-03-05T17:03:47.324Z,15.30
2023-03-05T17:06:17.905Z,14.13
2023-03-05T17:08:47.600Z,13.70
2023-03-05T17:11:16.413Z,13.77
2023-03-05T17:13:45.921Z,13.37
2023-03-05T17:16:18.466Z,13.00
2023-03-05T17:18:47.077Z,13.37
2023-03-05T17:21:15.680Z,13.90
2023-03-05T17:23:44.009Z,14.33
2023-03-05T17:26:14.237Z,14.83
2023-03-05T17:28:42.236Z,15.77
2023-03-05T17:31:10.353Z,20.30
2023-03-05T17:33:41.422Z,17.20
2023-03-05T17:36:14.834Z,16.20
2023-03-05T17:38:43.052Z,14.07
2023-03-05T17:41:11.429Z,15.40
2023-03-05T17:43:39.303Z,15.70
2023-03-05T17:46:07.888Z,15.13
2023-03-05T17:48:38.791Z,19.30
2023-03-05T17:51:08.934Z,17.40
2023-03-05T17:53:38.914Z,21.73
2023-03-05T17:56:08.736Z,25.87
2023-03-05T17:58:36.868Z,17.83
2023-03-05T18:01:05.508Z,15.93
2023-03-05T18:03:33.460Z,16.30
2023-03-05T18:06:01.262Z,17.33
2023-03-05T18:08:30.518Z,17.47
2023-03-05T18:10:58.450Z,15.27
2023-03-05T18:13:26.372Z,15.20
2023-03-05T18:15:54.279Z,15.87
2023-03-05T18:18:22.117Z,15.23
2023-03-05T18:20:50.669Z,16.77
2023-03-05T18:23:18.605Z,16.33
2023-03-05T18:25:48.035Z,16.77
2023-03-05T18:28:16.981Z,21.07
2023-03-05T18:30:46.332Z,17.50
2023-03-05T18:33:18.712Z,16.23
2023-03-05T18:35:46.743Z,15.43
2023-03-05T18:38:14.675Z,13.50
2023-03-05T18:40:43.743Z,12.70
2023-03-05T18:43:12.927Z,11.93
2023-03-05T18:45:40.840Z,14.37
2023-03-05T18:48:08.770Z,14.90
2023-03-05T18:50:36.906Z,25.17
2023-03-05T18:53:04.742Z,21.43
2023-03-05T18:55:33.027Z,20.50
2023-03-05T18:58:00.953Z,16.20
2023-03-05T19:00:31.848Z,24.20
2023-03-05T19:03:00.116Z,19.13
2023-03-05T19:05:28.097Z,17.30
2023-03-05T19:07:56.645Z,16.97
2023-03-05T19:10:25.285Z,16.73
2023-03-05T19:13:05.297Z,15.70
2023-03-05T19:15:34.790Z,15.53
2023-03-05T19:18:02.648Z,15.60
2023-03-05T19:20:30.491Z,15.70
2023-03-05T19:22:58.307Z,17.63
2023-03-05T19:25:26.205Z,16.27
2023-03-05T19:27:54.065Z,16.47
2023-03-05T19:30:22.173Z,16.80
2023-03-05T19:32:51.438Z,17.67
2023-03-05T19:35:19.973Z,17.13
2023-03-05T19:37:47.875Z,18.23
2023-03-05T19:40:15.914Z,15.70
2023-03-05T19:42:43.857Z,16.70
2023-03-05T19:45:12.290Z,15.13
2023-03-05T19:47:40.212Z,15.03
2023-03-05T19:50:10.260Z,15.67
2023-03-05T19:52:38.067Z,17.60
2023-03-05T19:55:06.845Z,16.50
2023-03-05T19:57:34.709Z,15.33
2023-03-05T20:00:02.575Z,15.87
2023-03-05T20:02:32.946Z,16.70
2023-03-05T20:05:00.937Z,17.00
2023-03-05T20:07:30.224Z,18.03
2023-03-05T20:09:58.182Z,17.80
2023-03-05T20:12:26.243Z,16.70
2023-03-05T20:14:54.114Z,16.67
2023-03-05T20:17:22.002Z,15.87
2023-03-05T20:19:49.823Z,16.33
2023-03-05T20:22:17.710Z,16.80
2023-03-05T20:24:47.336Z,14.30
2023-03-05T20:27:15.222Z,12.67
2023-03-05T20:29:43.035Z,11.90
2023-03-05T20:32:10.868Z,11.57
2023-03-05T20:34:38.798Z,19.73
2023-03-05T20:37:07.542Z,15.37
2023-03-05T20:39:35.367Z,27.20
2023-03-05T20:42:04.652Z,21.07
2023-03-05T20:44:32.476Z,16.83
2023-03-05T20:47:12.517Z,14.00
2023-03-05T20:49:40.409Z,14.30
2023-03-05T20:52:08.237Z,14.53
2023-03-05T20:54:36.366Z,20.47
2023-03-05T20:57:05.617Z,21.53
2023-03-05T20:59:33.471Z,21.53
2023-03-05T21:02:01.377Z,20.20
2023-03-05T21:04:29.446Z,18.87
2023-03-05T21:06:57.508Z,16.43
2023-03-05T21:09:25.371Z,14.60
2023-03-05T21:11:53.252Z,14.27
2023-03-05T21:14:22.506Z,13.20
2023-03-05T21:16:50.375Z,13.90
2023-03-05T21:19:18.240Z,14.43
2023-03-05T21:21:46.226Z,15.83
2023-03-05T21:24:16.519Z,15.50
2023-03-05T21:26:44.337Z,14.07
2023-03-05T21:29:12.225Z,14.87
2023-03-05T21:31:41.617Z,15.10
2023-03-05T21:34:09.512Z,14.27
2023-03-05T21:36:37.395Z,14.13
2023-03-05T21:39:05.428Z,14.87
2023-03-05T21:41:33.420Z,17.10
2023-03-05T21:44:04.034Z,24.93
2023-03-05T21:46:32.153Z,17.23
2023-03-05T21:49:01.385Z,14.43
2023-03-05T21:51:38.723Z,14.17
2023-03-05T21:54:07.105Z,13.20
2023-03-05T21:56:35.005Z,13.20
2023-03-05T21:59:03.112Z,12.47
2023-03-05T22:01:31.142Z,13.17
2023-03-05T22:03:59.006Z,12.40
2023-03-05T22:06:28.408Z,12.67
2023-03-05T22:08:56.538Z,13.23
2023-03-05T22:11:24.400Z,12.30
2023-03-05T22:13:52.350Z,13.07
2023-03-05T22:16:24.255Z,16.03
2023-03-05T22:18:53.181Z,18.70
2023-03-05T22:21:23.671Z,17.30
2023-03-05T22:23:54.188Z,17.73
2023-03-05T22:26:22.067Z,18.00
2023-03-05T22:28:50.403Z,17.87
2023-03-05T22:31:21.876Z,16.40
2023-03-05T22:33:50.085Z,16.60
2023-03-05T22:36:18.390Z,15.87
2023-03-05T22:38:46.701Z,16.90
2023-03-05T22:41:19.714Z,22.93
2023-03-05T22:43:48.306Z,19.47
2023-03-05T22:46:19.098Z,18.33
2023-03-05T22:48:47.313Z,16.23
2023-03-05T22:51:15.891Z,15.17
2023-03-05T22:53:45.909Z,13.40
2023-03-05T22:56:17.223Z,12.67
2023-03-05T22:58:45.371Z,12.43
2023-03-05T23:01:14.240Z,14.17
2023-03-05T23:03:42.771Z,12.83
2023-03-05T23:06:11.530Z,13.10
2023-03-05T23:08:39.427Z,12.50
2023-03-05T23:11:11.756Z,12.60
2023-03-05T23:13:41.660Z,12.00
2023-03-05T23:16:10.020Z,11.90
2023-03-05T23:18:38.407Z,11.40
2023-03-05T23:21:06.662Z,10.60
2023-03-05T23:23:34.616Z,10.77
2023-03-05T23:26:02.885Z,10.07
2023-03-05T23:28:30.746Z,10.60
2023-03-05T23:31:00.044Z,11.20
2023-03-05T23:33:28.015Z,10.40
2023-03-05T23:35:57.866Z,9.77
2023-03-05T23:38:27.259Z,10.13
2023-03-05T23:40:58.528Z,10.60
2023-03-05T23:43:28.322Z,9.70
2023-03-05T23:45:56.589Z,10.23
2023-03-05T23:48:27.460Z,10.23
2023-03-05T23:50:56.188Z,9.50
2023-03-05T23:53:26.125Z,10.27
2023-03-05T23:55:55.016Z,10.47
2023-03-05T23:58:23.276Z,10.03
